createdAt,value
2022-11-28T00:01:37.150Z,23.88
2022-11-28T00:04:06.873Z,25.55
2022-11-28T00:06:38.096Z,21.20
2022-11-28T00:09:08.126Z,23.25
2022-11-28T00:11:35.725Z,21.27
2022-11-28T00:14:03.343Z,23.80
2022-11-28T00:16:31.547Z,22.90
2022-11-28T00:19:00.726Z,26.15
2022-11-28T00:21:30.285Z,21.63
2022-11-28T00:23:59.116Z,23.55
2022-11-28T00:26:29.825Z,25.65
2022-11-28T00:28:58.976Z,22.20
2022-11-28T00:31:34.078Z,21.92
2022-11-28T00:34:03.698Z,25.45
2022-11-28T00:36:31.394Z,23.85
2022-11-28T00:38:59.213Z,29.98
2022-11-28T00:41:31.114Z,26.55
2022-11-28T00:43:59.211Z,24.63
2022-11-28T00:46:27.455Z,24.13
2022-11-28T00:48:55.235Z,22.48
2022-11-28T00:51:27.622Z,28.63
2022-11-28T00:53:57.517Z,25.70
2022-11-28T00:56:37.889Z,21.23
2022-11-28T00:59:07.298Z,24.00
2022-11-28T01:01:40.647Z,27.70
2022-11-28T01:04:11.647Z,25.70
2022-11-28T01:06:42.569Z,26.42
2022-11-28T01:09:13.970Z,22.98
2022-11-28T01:11:43.840Z,24.17
2022-11-28T01:14:12.779Z,22.95
2022-11-28T01:16:40.913Z,22.58
2022-11-28T01:19:08.863Z,23.08
2022-11-28T01:21:36.691Z,23.27
2022-11-28T01:24:04.689Z,21.30
2022-11-28T01:26:33.065Z,23.88
2022-11-28T01:29:01.329Z,27.17
2022-11-28T01:31:30.485Z,24.00
2022-11-28T01:33:58.437Z,22.50
2022-11-28T01:36:27.238Z,21.58
2022-11-28T01:38:55.249Z,20.80
2022-11-28T01:41:26.582Z,24.50
2022-11-28T01:44:00.946Z,19.40
2022-11-28T01:46:29.824Z,20.48
2022-11-28T01:49:02.942Z,21.83
2022-11-28T01:51:31.182Z,16.58
2022-11-28T01:54:00.226Z,19.92
2022-11-28T01:56:41.408Z,21.00
2022-11-28T01:59:11.799Z,19.02
2022-11-28T02:01:40.745Z,22.50
2022-11-28T02:04:09.406Z,18.08
2022-11-28T02:06:37.211Z,22.23
2022-11-28T02:09:10.667Z,30.10
2022-11-28T02:11:52.971Z,18.88
2022-11-28T02:15:08.437Z,16.83
2022-11-28T02:18:03.356Z,22.17
2022-11-28T02:21:07.101Z,18.48
2022-11-28T02:23:37.638Z,23.77
2022-11-28T02:26:39.116Z,19.40
2022-11-28T02:29:37.888Z,16.55
2022-11-28T02:32:14.505Z,15.45
2022-11-28T02:34:48.705Z,17.05
2022-11-28T02:37:45.739Z,21.38
2022-11-28T02:40:29.432Z,15.10
2022-11-28T02:43:03.115Z,19.98
2022-11-28T02:45:43.010Z,18.35
2022-11-28T02:48:25.137Z,17.73
2022-11-28T02:51:06.789Z,17.77
2022-11-28T02:53:35.689Z,19.08
2022-11-28T02:56:04.598Z,26.17
2022-11-28T02:58:32.174Z,15.13
2022-11-28T03:01:00.561Z,16.30
2022-11-28T03:04:16.154Z,14.77
2022-11-28T03:07:07.496Z,15.63
2022-11-28T03:10:03.361Z,17.40
2022-11-28T03:12:47.696Z,18.08
2022-11-28T03:15:21.640Z,22.98
2022-11-28T03:18:04.458Z,17.63
2022-11-28T03:20:35.023Z,15.65
2022-11-28T03:23:15.240Z,14.48
2022-11-28T03:25:59.246Z,17.90
2022-11-28T03:28:43.448Z,16.58
2022-11-28T03:31:16.486Z,19.17
2022-11-28T03:33:53.928Z,17.43
2022-11-28T03:36:33.088Z,18.13
2022-11-28T03:39:09.474Z,17.92
2022-11-28T03:41:42.833Z,15.63
2022-11-28T03:44:19.251Z,17.90
2022-11-28T03:46:53.115Z,15.80
2022-11-28T03:49:31.274Z,15.27
2022-11-28T03:52:04.581Z,17.00
2022-11-28T03:54:55.682Z,12.30
2022-11-28T03:58:02.837Z,12.00
2022-11-28T04:00:31.303Z,13.98
2022-11-28T04:03:32.792Z,20.23
2022-11-28T04:06:10.618Z,18.88
2022-11-28T04:08:46.959Z,16.65
2022-11-28T04:11:28.126Z,15.40
2022-11-28T04:14:08.393Z,16.40
2022-11-28T04:16:53.609Z,17.45
2022-11-28T04:19:48.946Z,11.63
2022-11-28T04:22:38.237Z,14.95
2022-11-28T04:25:09.879Z,15.23
2022-11-28T04:27:40.214Z,14.40
2022-11-28T04:30:09.345Z,13.35
2022-11-28T04:32:41.658Z,16.58
2022-11-28T04:35:19.617Z,14.55
2022-11-28T04:37:50.270Z,11.98
2022-11-28T04:40:20.546Z,12.25
2022-11-28T04:42:53.889Z,12.55
2022-11-28T04:45:47.627Z,11.35
2022-11-28T04:48:15.345Z,12.38
2022-11-28T04:50:58.294Z,11.50
2022-11-28T04:53:35.512Z,11.60
2022-11-28T04:56:19.698Z,13.00
2022-11-28T04:58:49.706Z,15.23
2022-11-28T05:01:30.658Z,11.68
2022-11-28T05:03:58.567Z,12.05
2022-11-28T05:06:33.092Z,15.98
2022-11-28T05:09:01.132Z,16.20
2022-11-28T05:11:29.879Z,15.20
2022-11-28T05:13:57.681Z,16.27
2022-11-28T05:16:25.321Z,17.35
2022-11-28T05:18:53.246Z,19.83
2022-11-28T05:21:21.218Z,14.52
2022-11-28T05:23:49.647Z,15.35
2022-11-28T05:26:20.694Z,21.45
2022-11-28T05:28:53.352Z,14.80
2022-11-28T05:31:22.405Z,12.13
2022-11-28T05:33:51.191Z,20.87
2022-11-28T05:36:18.809Z,12.77
2022-11-28T05:38:46.616Z,11.25
2022-11-28T05:41:25.810Z,18.88
2022-11-28T05:43:55.429Z,23.17
2022-11-28T05:46:23.822Z,15.85
2022-11-28T05:48:51.521Z,22.00
2022-11-28T05:51:19.191Z,12.07
2022-11-28T05:53:46.913Z,17.83
2022-11-28T05:56:19.719Z,17.38
2022-11-28T05:58:47.816Z,14.63
2022-11-28T06:01:27.500Z,18.52
2022-11-28T06:04:00.785Z,13.60
2022-11-28T06:06:31.136Z,16.42
2022-11-28T06:08:59.203Z,15.98
2022-11-28T06:11:28.541Z,15.65
2022-11-28T06:13:56.834Z,15.32
2022-11-28T06:16:27.345Z,37.45
2022-11-28T06:18:57.038Z,29.58
2022-11-28T06:21:25.302Z,20.77
2022-11-28T06:23:53.088Z,15.93
2022-11-28T06:26:23.658Z,17.42
2022-11-28T06:28:51.337Z,20.52
2022-11-28T06:31:24.805Z,21.90
2022-11-28T06:33:52.497Z,19.15
2022-11-28T06:36:20.490Z,19.25
2022-11-28T06:38:48.596Z,14.40
2022-11-28T06:41:19.208Z,18.02
2022-11-28T06:43:47.718Z,21.92
2022-11-28T06:46:19.518Z,25.92
2022-11-28T06:48:50.070Z,22.42
2022-11-28T06:51:19.060Z,20.52
2022-11-28T06:53:46.662Z,21.33
2022-11-28T06:56:17.785Z,17.95
2022-11-28T06:58:46.156Z,14.93
2022-11-28T07:01:18.401Z,23.77
2022-11-28T07:03:47.296Z,15.77
2022-11-28T07:06:17.809Z,14.15
2022-11-28T07:08:46.794Z,16.85
2022-11-28T07:11:18.503Z,19.83
2022-11-28T07:13:48.212Z,25.30
2022-11-28T07:16:23.275Z,14.80
2022-11-28T07:18:51.537Z,14.25
2022-11-28T07:21:20.360Z,19.48
2022-11-28T07:23:48.529Z,17.38
2022-11-28T07:26:20.101Z,17.02
2022-11-28T07:28:49.256Z,22.60
2022-11-28T07:31:19.478Z,16.95
2022-11-28T07:33:49.888Z,14.90
2022-11-28T07:36:28.596Z,17.58
2022-11-28T07:38:59.186Z,30.45
2022-11-28T07:41:28.178Z,16.27
2022-11-28T07:43:58.974Z,18.27
2022-11-28T07:46:28.571Z,22.63
2022-11-28T07:48:56.682Z,16.73
2022-11-28T07:51:30.389Z,12.85
2022-11-28T07:53:58.041Z,14.50
2022-11-28T07:56:39.594Z,17.55
2022-11-28T07:59:13.161Z,22.73
2022-11-28T08:01:40.869Z,14.32
2022-11-28T08:04:10.283Z,20.75
2022-11-28T08:06:41.805Z,14.93
2022-11-28T08:09:12.085Z,19.42
2022-11-28T08:11:40.419Z,16.90
2022-11-28T08:14:08.049Z,27.73
2022-11-28T08:16:37.031Z,14.10
2022-11-28T08:19:05.187Z,19.67
2022-11-28T08:21:35.534Z,18.40
2022-11-28T08:24:04.740Z,16.50
2022-11-28T08:26:33.135Z,15.80
2022-11-28T08:29:02.098Z,20.45
2022-11-28T08:31:35.564Z,20.88
2022-11-28T08:34:06.100Z,17.30
2022-11-28T08:36:34.128Z,14.95
2022-11-28T08:39:22.295Z,16.10
2022-11-28T08:41:52.469Z,17.52
2022-11-28T08:44:20.166Z,17.45
2022-11-28T08:46:47.732Z,17.27
2022-11-28T08:49:16.108Z,13.70
2022-11-28T08:51:44.144Z,21.10
2022-11-28T08:54:12.382Z,15.38
2022-11-28T08:56:40.345Z,20.25
2022-11-28T08:59:09.668Z,22.08
2022-11-28T09:01:37.465Z,17.77
2022-11-28T09:04:05.479Z,22.05
2022-11-28T09:06:33.110Z,29.20
2022-11-28T09:09:03.053Z,23.50
2022-11-28T09:11:31.631Z,22.13
2022-11-28T09:14:00.534Z,24.40
2022-11-28T09:16:28.222Z,16.55
2022-11-28T09:18:59.596Z,21.30
2022-11-28T09:21:27.767Z,17.27
2022-11-28T09:23:56.348Z,22.13
2022-11-28T09:26:25.457Z,30.48
2022-11-28T09:28:54.011Z,28.73
2022-11-28T09:31:22.742Z,25.90
2022-11-28T09:33:50.580Z,23.73
2022-11-28T09:36:22.173Z,22.55
2022-11-28T09:38:50.583Z,21.45
2022-11-28T09:41:44.588Z,22.45
2022-11-28T09:44:14.903Z,24.02
2022-11-28T09:46:44.692Z,18.10
2022-11-28T09:49:24.486Z,19.23
2022-11-28T09:52:19.133Z,26.10
2022-11-28T09:54:56.421Z,20.73
2022-11-28T09:57:33.724Z,20.83
2022-11-28T10:00:01.912Z,25.83
2022-11-28T10:03:04.452Z,38.78
2022-11-28T10:05:37.993Z,29.48
2022-11-28T10:08:18.222Z,25.90
2022-11-28T10:10:50.442Z,24.23
2022-11-28T10:13:47.084Z,23.67
2022-11-28T10:16:33.306Z,29.98
2022-11-28T10:19:09.899Z,37.50
2022-11-28T10:21:55.103Z,21.20
2022-11-28T10:24:37.429Z,27.90
2022-11-28T10:27:06.421Z,29.45
2022-11-28T10:29:57.858Z,24.05
2022-11-28T10:32:42.593Z,19.92
2022-11-28T10:35:33.039Z,21.10
2022-11-28T10:38:01.117Z,24.35
2022-11-28T10:40:40.373Z,29.17
2022-11-28T10:44:02.935Z,24.00
2022-11-28T10:46:52.838Z,20.70
2022-11-28T10:49:20.874Z,20.67
2022-11-28T10:51:51.537Z,18.80
2022-11-28T10:54:25.070Z,29.13
2022-11-28T10:57:17.731Z,24.17
2022-11-28T11:00:06.476Z,17.13
2022-11-28T11:02:44.318Z,22.20
2022-11-28T11:05:15.850Z,23.67
2022-11-28T11:07:49.440Z,34.00
2022-11-28T11:10:37.474Z,23.25
2022-11-28T11:13:20.937Z,38.22
2022-11-28T11:15:57.708Z,21.73
2022-11-28T11:18:28.917Z,32.63
2022-11-28T11:21:15.342Z,28.73
2022-11-28T11:23:44.547Z,34.03
2022-11-28T11:26:26.149Z,31.35
2022-11-28T11:28:54.691Z,26.05
2022-11-28T11:31:26.781Z,30.50
2022-11-28T11:34:17.176Z,24.52
2022-11-28T11:36:45.359Z,22.02
2022-11-28T11:39:12.897Z,24.15
2022-11-28T11:41:45.828Z,30.48
2022-11-28T11:44:20.503Z,25.93
2022-11-28T11:46:57.642Z,36.85
2022-11-28T11:49:30.080Z,31.63
2022-11-28T11:52:00.465Z,33.08
2022-11-28T11:54:28.707Z,24.67
2022-11-28T11:57:24.973Z,24.98
2022-11-28T12:00:15.297Z,31.38
2022-11-28T12:02:57.190Z,30.70
2022-11-28T12:08:52.837Z,29.92
2022-11-28T12:11:36.542Z,28.15
2022-11-28T12:14:25.940Z,38.53
2022-11-28T12:17:46.749Z,25.95
2022-11-28T12:20:40.064Z,23.42
2022-11-28T12:23:38.376Z,27.33
2022-11-28T12:26:16.663Z,33.45
2022-11-28T12:29:02.931Z,27.27
2022-11-28T12:31:59.953Z,29.55
2022-11-28T12:34:46.354Z,29.67
2022-11-28T12:38:09.761Z,29.08
2022-11-28T12:40:44.187Z,27.58
2022-11-28T12:43:21.727Z,31.65
2022-11-28T12:45:59.878Z,27.42
2022-11-28T12:48:53.245Z,26.00
2022-11-28T12:52:05.925Z,26.70
2022-11-28T12:54:58.603Z,27.10
2022-11-28T12:58:06.999Z,26.17
2022-11-28T13:00:59.126Z,32.80
2022-11-28T13:04:03.640Z,26.05
2022-11-28T13:06:37.090Z,36.28
2022-11-28T13:09:26.011Z,27.85
2022-11-28T13:12:12.182Z,37.78
2022-11-28T13:14:51.148Z,23.60
2022-11-28T13:17:22.379Z,25.77
2022-11-28T13:20:06.904Z,22.85
2022-11-28T13:22:47.014Z,25.90
2022-11-28T13:25:33.489Z,35.60
2022-11-28T13:28:21.751Z,30.08
2022-11-28T13:30:58.844Z,34.33
2022-11-28T13:33:52.486Z,35.40
2022-11-28T13:39:33.058Z,29.50
2022-11-28T13:42:58.973Z,29.55
2022-11-28T13:45:28.408Z,27.05
2022-11-28T13:48:01.112Z,34.85
2022-11-28T13:50:28.934Z,28.45
2022-11-28T13:53:23.211Z,38.65
2022-11-28T13:56:03.725Z,26.23
2022-11-28T13:58:56.956Z,27.27
2022-11-28T14:01:44.242Z,28.77
2022-11-28T14:04:14.877Z,23.25
2022-11-28T14:06:54.565Z,27.38
2022-11-28T14:09:44.872Z,26.58
2022-11-28T14:12:19.259Z,22.13
2022-11-28T14:15:07.403Z,24.38
2022-11-28T14:18:54.484Z,25.58
2022-11-28T14:21:31.453Z,25.73
2022-11-28T14:24:25.252Z,23.20
2022-11-28T14:29:41.795Z,26.05
2022-11-28T14:32:31.192Z,27.13
2022-11-28T14:35:01.674Z,23.75
2022-11-28T14:37:34.772Z,16.65
2022-11-28T14:40:03.709Z,24.05
2022-11-28T14:42:59.406Z,25.25
2022-11-28T14:45:44.631Z,20.92
2022-11-28T14:48:30.449Z,24.20
2022-11-28T14:51:02.058Z,27.45
2022-11-28T14:53:37.033Z,21.08
2022-11-28T14:56:24.580Z,31.17
2022-11-28T14:58:57.305Z,24.00
2022-11-28T15:01:45.961Z,25.77
2022-11-28T15:04:35.234Z,33.90
2022-11-28T15:07:10.818Z,28.23
2022-11-28T15:10:07.218Z,32.00
2022-11-28T15:13:07.637Z,24.80
2022-11-28T15:15:35.839Z,33.67
2022-11-28T15:18:04.907Z,30.25
2022-11-28T15:20:42.531Z,26.42
2022-11-28T15:23:43.241Z,30.80
2022-11-28T15:26:27.933Z,33.63
2022-11-28T15:29:19.987Z,31.75
2022-11-28T15:31:51.628Z,33.63
2022-11-28T15:34:28.033Z,32.80
2022-11-28T15:37:04.930Z,31.17
2022-11-28T15:39:35.985Z,35.95
2022-11-28T15:42:05.874Z,31.13
2022-11-28T15:44:34.888Z,23.75
2022-11-28T15:47:03.231Z,24.25
2022-11-28T15:49:33.821Z,29.58
2022-11-28T15:52:04.654Z,26.02
2022-11-28T15:54:34.551Z,32.58
2022-11-28T15:57:02.294Z,32.35
2022-11-28T15:59:30.860Z,33.00
2022-11-28T16:02:16.948Z,25.15
2022-11-28T16:04:45.772Z,30.88
2022-11-28T16:07:16.332Z,31.65
2022-11-28T16:10:01.098Z,34.10
2022-11-28T16:12:29.896Z,27.13
2022-11-28T16:15:02.022Z,28.30
2022-11-28T16:17:34.117Z,28.50
2022-11-28T16:20:03.712Z,32.55
2022-11-28T16:22:36.975Z,32.42
2022-11-28T16:25:14.335Z,33.58
2022-11-28T16:27:44.697Z,27.13
2022-11-28T16:30:33.592Z,29.35
2022-11-28T16:33:24.517Z,27.92
2022-11-28T16:35:52.192Z,30.80
2022-11-28T16:38:24.696Z,26.75
2022-11-28T16:41:01.168Z,36.72
2022-11-28T16:43:38.381Z,25.80
2022-11-28T16:46:17.142Z,25.70
2022-11-28T16:48:57.623Z,29.48
2022-11-28T16:51:30.790Z,37.08
2022-11-28T16:54:01.575Z,40.70
2022-11-28T16:56:30.122Z,30.25
2022-11-28T16:59:16.747Z,27.90
2022-11-28T17:01:47.125Z,30.13
2022-11-28T17:04:30.579Z,29.02
2022-11-28T17:07:05.227Z,30.02
2022-11-28T17:09:34.063Z,30.23
2022-11-28T17:12:27.333Z,31.20
2022-11-28T17:14:56.297Z,28.50
2022-11-28T17:17:24.710Z,29.90
2022-11-28T17:19:52.668Z,28.00
2022-11-28T17:25:07.982Z,29.58
2022-11-28T17:27:36.132Z,26.85
2022-11-28T17:30:04.191Z,24.98
2022-11-28T17:32:32.195Z,25.13
2022-11-28T17:35:04.313Z,30.63
2022-11-28T17:37:31.973Z,26.15
2022-11-28T17:40:18.183Z,29.13
2022-11-28T17:42:46.186Z,24.02
2022-11-28T17:45:15.116Z,26.08
2022-11-28T17:47:43.836Z,21.67
2022-11-28T17:50:12.621Z,29.23
2022-11-28T17:52:40.632Z,41.42
2022-11-28T17:55:09.183Z,38.75
2022-11-28T17:57:37.922Z,38.42
2022-11-28T18:00:08.025Z,28.55
2022-11-28T18:02:42.461Z,32.78
2022-11-28T18:05:10.409Z,34.67
2022-11-28T18:07:40.201Z,32.13
2022-11-28T18:10:12.138Z,27.55
2022-11-28T18:12:40.438Z,33.20
2022-11-28T18:15:10.644Z,33.15
2022-11-28T18:17:39.206Z,31.48
2022-11-28T18:20:08.591Z,32.85
2022-11-28T18:22:37.009Z,30.83
2022-11-28T18:25:08.026Z,39.00
2022-11-28T18:27:36.152Z,31.75
2022-11-28T18:30:04.634Z,35.00
2022-11-28T18:32:32.967Z,35.90
2022-11-28T18:35:03.361Z,33.53
2022-11-28T18:37:31.187Z,34.97
2022-11-28T18:39:59.125Z,32.58
2022-11-28T18:42:27.801Z,31.45
2022-11-28T18:44:55.548Z,33.17
2022-11-28T18:47:26.133Z,37.60
2022-11-28T18:49:54.616Z,30.92
2022-11-28T18:52:22.825Z,34.95
2022-11-28T18:54:51.270Z,33.55
2022-11-28T18:57:18.947Z,33.38
2022-11-28T18:59:54.249Z,30.33
2022-11-28T19:02:23.826Z,33.03
2022-11-28T19:04:53.142Z,34.58
2022-11-28T19:07:22.332Z,35.63
2022-11-28T19:09:51.162Z,39.47
2022-11-28T19:12:19.883Z,37.42
2022-11-28T19:14:48.191Z,35.15
2022-11-28T19:17:16.298Z,33.38
2022-11-28T19:19:44.861Z,35.22
2022-11-28T19:22:12.782Z,36.92
2022-11-28T19:24:46.350Z,31.45
2022-11-28T19:27:14.800Z,30.98
2022-11-28T19:29:44.418Z,33.00
2022-11-28T19:32:12.734Z,30.42
2022-11-28T19:34:40.900Z,46.85
2022-11-28T19:37:09.115Z,35.08
2022-11-28T19:39:37.200Z,40.60
2022-11-28T19:42:05.002Z,32.85
2022-11-28T19:44:33.870Z,32.60
2022-11-28T19:47:01.843Z,32.53
2022-11-28T19:49:30.057Z,36.40
2022-11-28T19:51:58.514Z,35.10
2022-11-28T19:54:26.661Z,37.53
2022-11-28T19:56:56.248Z,35.05
2022-11-28T19:59:24.147Z,37.20
2022-11-28T20:01:53.937Z,33.38
2022-11-28T20:04:23.031Z,33.67
2022-11-28T20:06:51.280Z,39.42
2022-11-28T20:09:18.993Z,46.55
2022-11-28T20:11:48.111Z,48.83
2022-11-28T20:14:20.264Z,38.63
2022-11-28T20:16:48.543Z,47.55
2022-11-28T20:19:17.879Z,37.78
2022-11-28T20:21:46.600Z,45.45
2022-11-28T20:24:16.058Z,37.10
2022-11-28T20:26:46.009Z,37.88
2022-11-28T20:29:16.193Z,32.35
2022-11-28T20:31:46.421Z,36.97
2022-11-28T20:34:18.388Z,33.22
2022-11-28T20:36:52.489Z,31.40
2022-11-28T20:39:20.267Z,41.90
2022-11-28T20:41:48.819Z,52.28
2022-11-28T20:44:19.047Z,35.42
2022-11-28T20:46:49.521Z,41.88
2022-11-28T20:49:18.360Z,35.92
2022-11-28T20:51:46.250Z,43.67
2022-11-28T20:54:14.486Z,38.63
2022-11-28T20:59:33.011Z,35.63
2022-11-28T21:02:01.193Z,44.47
2022-11-28T21:04:28.907Z,43.28
2022-11-28T21:06:56.917Z,41.22
2022-11-28T21:09:25.402Z,38.28
2022-11-28T21:11:59.029Z,37.47
2022-11-28T21:14:29.321Z,40.42
2022-11-28T21:16:58.367Z,51.35
2022-11-28T21:19:26.335Z,41.13
2022-11-28T21:21:54.478Z,44.95
2022-11-28T21:24:22.483Z,39.55
2022-11-28T21:26:53.948Z,50.47
2022-11-28T21:29:24.519Z,42.72
2022-11-28T21:31:53.642Z,40.80
2022-11-28T21:34:22.782Z,38.60
2022-11-28T21:36:50.722Z,44.97
2022-11-28T21:39:22.051Z,48.85
2022-11-28T21:41:51.174Z,40.53
2022-11-28T21:44:19.148Z,47.38
2022-11-28T21:46:46.879Z,45.47
2022-11-28T21:49:14.857Z,44.95
2022-11-28T21:51:42.578Z,51.72
2022-11-28T21:54:13.754Z,38.55
2022-11-28T21:56:42.135Z,52.20
2022-11-28T21:59:10.693Z,47.08
2022-11-28T22:01:41.578Z,44.15
2022-11-28T22:04:10.687Z,41.47
2022-11-28T22:06:40.048Z,45.42
2022-11-28T22:09:09.935Z,42.45
2022-11-28T22:11:39.645Z,38.75
2022-11-28T22:14:07.513Z,43.20
2022-11-28T22:16:36.099Z,41.55
2022-11-28T22:19:04.981Z,39.78
2022-11-28T22:24:21.578Z,38.83
2022-11-28T22:26:50.421Z,37.85
2022-11-28T22:29:19.207Z,31.75
2022-11-28T22:31:47.114Z,33.47
2022-11-28T22:34:15.962Z,41.85
2022-11-28T22:36:44.324Z,45.05
2022-11-28T22:39:12.104Z,43.97
2022-11-28T22:41:40.174Z,44.90
2022-11-28T22:44:10.609Z,39.60
2022-11-28T22:46:38.667Z,40.53
2022-11-28T22:49:07.268Z,40.45
2022-11-28T22:51:36.588Z,39.47
2022-11-28T22:54:04.782Z,36.10
2022-11-28T22:56:34.572Z,47.50
2022-11-28T22:59:05.071Z,39.67
2022-11-28T23:01:34.881Z,39.92
2022-11-28T23:04:03.758Z,48.83
2022-11-28T23:06:34.488Z,35.63
2022-11-28T23:09:08.541Z,48.42
2022-11-28T23:14:06.060Z,46.25
2022-11-28T23:16:39.868Z,37.33
2022-11-28T23:19:12.594Z,37.00
2022-11-28T23:21:42.903Z,41.00
2022-11-28T23:24:20.285Z,41.92
2022-11-28T23:26:51.719Z,35.47
2022-11-28T23:29:20.177Z,37.08
2022-11-28T23:31:50.004Z,34.67
2022-11-28T23:34:17.824Z,38.97
2022-11-28T23:36:47.273Z,37.70
2022-11-28T23:39:19.101Z,39.28
2022-11-28T23:41:47.561Z,40.38
2022-11-28T23:44:17.183Z,36.85
2022-11-28T23:46:45.852Z,42.20
2022-11-28T23:49:14.207Z,34.88
2022-11-28T23:51:42.411Z,39.25
2022-11-28T23:54:11.467Z,39.10
2022-11-28T23:56:41.788Z,44.25
2022-11-28T23:59:11.853Z,37.55
